createdAt,value
2018-07-23T00:00:37.084Z,101078.41
2018-07-23T00:03:06.469Z,101083.73
2018-07-23T00:05:35.778Z,101077.87
2018-07-23T00:08:05.991Z,101080.55
2018-07-23T00:10:35.554Z,101079.03
2018-07-23T00:13:05.345Z,101071.55
2018-07-23T00:15:34.949Z,101086.03
2018-07-23T00:18:04.436Z,101074.13
2018-07-23T00:20:33.860Z,101071.17
2018-07-23T00:23:04.216Z,101070.23
2018-07-23T00:25:33.614Z,101067.52
2018-07-23T00:28:02.950Z,101070.23
2018-07-23T00:30:32.833Z,101071.66
2018-07-23T00:33:02.637Z,101066.64
2018-07-23T00:35:32.127Z,101065.59
2018-07-23T00:38:01.859Z,101069.08
2018-07-23T00:40:31.439Z,101064.16
2018-07-23T00:43:00.999Z,101061.59
2018-07-23T00:45:30.820Z,101062.22
2018-07-23T00:48:00.727Z,101065.21
2018-07-23T00:50:30.028Z,101062.55
2018-07-23T00:52:59.677Z,101062.22
2018-07-23T00:55:29.410Z,101055.45
2018-07-23T00:57:58.835Z,101054.12
2018-07-23T01:00:28.454Z,101048.25
2018-07-23T01:03:02.281Z,101054.92
2018-07-23T01:05:32.281Z,101049.69
2018-07-23T01:08:01.602Z,101046.82
2018-07-23T01:10:30.902Z,101049.48
2018-07-23T01:13:00.737Z,101051.11
2018-07-23T01:15:30.086Z,101054.12
2018-07-23T01:17:59.590Z,101046.92
2018-07-23T01:20:29.905Z,101047.34
2018-07-23T01:22:59.257Z,101051.38
2018-07-23T01:25:28.766Z,101047.09
2018-07-23T01:27:58.715Z,101054.12
2018-07-23T01:30:28.218Z,101047.73
2018-07-23T01:32:57.508Z,101047.45
2018-07-23T01:35:27.515Z,101055.16
2018-07-23T01:37:57.080Z,101048.78
2018-07-23T01:40:26.649Z,101043.55
2018-07-23T01:42:56.332Z,101045.30
2018-07-23T01:45:25.964Z,101049.92
2018-07-23T01:47:55.342Z,101049.92
2018-07-23T01:50:25.182Z,101052.78
2018-07-23T01:52:54.738Z,101048.68
2018-07-23T01:55:24.109Z,101051.34
2018-07-23T01:57:54.094Z,101055.25
2018-07-23T02:00:23.754Z,101054.92
2018-07-23T02:02:53.188Z,101051.55
2018-07-23T02:05:22.922Z,101058.81
2018-07-23T02:07:52.745Z,101056.98
2018-07-23T02:10:22.080Z,101056.36
2018-07-23T02:12:51.670Z,101053.49
2018-07-23T02:15:21.125Z,101044.67
2018-07-23T02:17:50.588Z,100906.12
2018-07-23T02:20:20.262Z,101051.65
2018-07-23T02:22:49.974Z,101052.66
2018-07-23T02:25:19.484Z,101048.66
2018-07-23T02:27:49.253Z,101054.45
2018-07-23T02:30:18.744Z,101053.47
2018-07-23T02:32:48.232Z,101049.99
2018-07-23T02:35:17.810Z,101051.85
2018-07-23T02:37:47.346Z,101055.92
2018-07-23T02:40:16.960Z,101051.75
2018-07-23T02:42:46.693Z,101055.69
2018-07-23T02:45:16.197Z,101056.14
2018-07-23T02:47:45.760Z,101059.85
2018-07-23T02:50:15.370Z,101051.75
2018-07-23T02:52:44.867Z,101057.47
2018-07-23T02:55:14.602Z,101061.94
2018-07-23T02:57:44.069Z,101058.13
2018-07-23T03:00:13.533Z,101058.41
2018-07-23T03:02:43.299Z,101023.03
2018-07-23T03:05:12.908Z,101060.78
2018-07-23T03:07:42.221Z,101062.94
2018-07-23T03:10:11.810Z,101059.97
2018-07-23T03:12:41.427Z,101055.88
2018-07-23T03:15:11.076Z,101059.16
2018-07-23T03:17:40.547Z,101062.22
2018-07-23T03:20:10.344Z,101062.22
2018-07-23T03:22:39.501Z,101063.98
2018-07-23T03:25:09.048Z,101064.08
2018-07-23T03:27:39.023Z,101064.59
2018-07-23T03:30:08.722Z,101064.45
2018-07-23T03:32:38.168Z,101069.12
2018-07-23T03:35:07.637Z,101071.34
2018-07-23T03:37:38.454Z,101070.21
2018-07-23T03:40:07.934Z,101068.42
2018-07-23T03:42:37.413Z,101071.44
2018-07-23T03:45:07.632Z,101067.71
2018-07-23T03:47:36.990Z,101067.02
2018-07-23T03:50:07.376Z,101064.14
2018-07-23T03:52:37.009Z,101051.50
2018-07-23T03:55:06.532Z,101055.09
2018-07-23T03:57:36.316Z,101063.34
2018-07-23T04:00:05.957Z,101065.58
2018-07-23T04:02:35.525Z,101072.46
2018-07-23T04:05:06.393Z,101058.14
2018-07-23T04:07:35.850Z,101059.19
2018-07-23T04:10:05.904Z,101062.91
2018-07-23T04:12:35.511Z,101061.75
2018-07-23T04:15:06.203Z,101059.95
2018-07-23T04:17:35.644Z,101070.81
2018-07-23T04:20:05.534Z,101065.38
2018-07-23T04:22:34.840Z,101066.58
2018-07-23T04:25:04.386Z,101072.86
2018-07-23T04:27:34.247Z,101078.83
2018-07-23T04:30:04.369Z,101078.41
2018-07-23T04:32:33.896Z,101073.94
2018-07-23T04:35:03.644Z,101077.25
2018-07-23T04:37:33.140Z,101081.39
2018-07-23T04:40:03.021Z,101062.48
2018-07-23T04:42:32.821Z,101079.21
2018-07-23T04:45:02.372Z,101076.80
2018-07-23T04:47:32.280Z,101087.83
2018-07-23T04:50:02.436Z,101084.97
2018-07-23T04:52:32.245Z,101085.18
2018-07-23T04:55:01.620Z,101091.85
2018-07-23T04:57:31.330Z,101086.23
2018-07-23T05:00:01.176Z,101085.58
2018-07-23T05:02:30.744Z,101077.95
2018-07-23T05:05:00.477Z,101087.02
2018-07-23T05:07:29.907Z,101093.63
2018-07-23T05:09:59.252Z,101095.13
2018-07-23T05:12:29.158Z,101088.70
2018-07-23T05:14:58.436Z,101086.94
2018-07-23T05:17:27.721Z,101089.16
2018-07-23T05:19:57.524Z,101093.06
2018-07-23T05:22:26.843Z,101092.19
2018-07-23T05:24:55.994Z,101090.08
2018-07-23T05:27:26.025Z,101094.92
2018-07-23T05:29:55.482Z,101092.44
2018-07-23T05:32:24.848Z,101101.67
2018-07-23T05:34:54.685Z,101097.53
2018-07-23T05:37:24.303Z,101101.67
2018-07-23T05:39:53.952Z,101104.66
2018-07-23T05:42:23.772Z,101102.33
2018-07-23T05:44:53.479Z,101104.19
2018-07-23T05:47:22.998Z,101111.56
2018-07-23T05:49:52.712Z,101095.73
2018-07-23T05:52:22.743Z,101103.73
2018-07-23T05:54:52.135Z,101106.61
2018-07-23T05:57:21.428Z,101106.52
2018-07-23T05:59:51.048Z,100932.19
2018-07-23T06:02:20.540Z,101105.47
2018-07-23T06:04:49.859Z,101105.09
2018-07-23T06:07:20.060Z,101101.50
2018-07-23T06:09:49.771Z,101105.05
2018-07-23T06:12:18.978Z,101101.33
2018-07-23T06:14:48.425Z,101104.55
2018-07-23T06:17:18.000Z,101103.72
2018-07-23T06:19:47.088Z,101099.94
2018-07-23T06:22:16.776Z,101095.70
2018-07-23T06:24:46.316Z,101099.99
2018-07-23T06:27:15.689Z,101110.05
2018-07-23T06:29:45.366Z,101107.90
2018-07-23T06:32:14.984Z,101104.00
2018-07-23T06:34:44.631Z,101109.94
2018-07-23T06:37:14.102Z,101110.05
2018-07-23T06:39:43.676Z,101110.85
2018-07-23T06:42:13.232Z,101108.95
2018-07-23T06:44:42.904Z,101113.35
2018-07-23T06:47:12.940Z,101109.59
2018-07-23T06:49:42.364Z,101121.25
2018-07-23T06:52:12.146Z,101119.56
2018-07-23T06:54:41.829Z,101124.80
2018-07-23T06:57:11.910Z,101121.14
2018-07-23T06:59:41.615Z,101126.77
2018-07-23T07:02:10.936Z,101128.63
2018-07-23T07:04:40.685Z,101130.56
2018-07-23T07:07:10.338Z,101135.14
2018-07-23T07:09:40.058Z,101128.87
2018-07-23T07:12:09.928Z,101121.50
2018-07-23T07:14:39.473Z,101131.69
2018-07-23T07:17:09.143Z,101129.16
2018-07-23T07:19:38.849Z,101132.57
2018-07-23T07:22:08.519Z,101134.54
2018-07-23T07:24:37.810Z,101128.87
2018-07-23T07:27:07.318Z,101130.14
2018-07-23T07:29:36.702Z,101128.78
2018-07-23T07:32:05.963Z,101143.20
2018-07-23T07:34:35.677Z,101137.56
2018-07-23T07:37:05.902Z,101143.27
2018-07-23T07:39:35.280Z,101134.50
2018-07-23T07:42:04.963Z,101137.11
2018-07-23T07:44:35.005Z,101142.84
2018-07-23T07:47:04.496Z,101142.95
2018-07-23T07:49:34.227Z,101134.86
2018-07-23T07:52:04.550Z,101137.30
2018-07-23T07:54:33.900Z,101145.40
2018-07-23T07:57:03.621Z,101144.41
2018-07-23T07:59:33.340Z,101147.20
2018-07-23T08:02:03.598Z,101149.42
2018-07-23T08:04:33.543Z,101139.45
2018-07-23T08:07:03.456Z,101146.86
2018-07-23T08:09:33.028Z,101146.78
2018-07-23T08:12:03.051Z,101150.26
2018-07-23T08:14:32.440Z,101148.23
2018-07-23T08:17:01.809Z,101153.41
2018-07-23T08:19:31.554Z,101164.61
2018-07-23T08:22:00.927Z,101153.37
2018-07-23T08:24:30.556Z,101154.09
2018-07-23T08:27:00.308Z,101162.28
2018-07-23T08:29:29.857Z,101168.94
2018-07-23T08:31:59.582Z,101159.88
2018-07-23T08:34:29.372Z,101164.16
2018-07-23T08:36:58.835Z,101170.47
2018-07-23T08:39:28.817Z,101173.67
2018-07-23T08:41:58.563Z,101178.08
2018-07-23T08:44:28.338Z,101177.84
2018-07-23T08:46:57.912Z,101173.31
2018-07-23T08:49:27.743Z,101174.76
2018-07-23T08:51:57.404Z,101178.20
2018-07-23T08:54:26.892Z,101185.77
2018-07-23T08:56:56.564Z,101176.40
2018-07-23T08:59:26.370Z,101175.56
2018-07-23T09:01:56.071Z,101184.11
2018-07-23T09:04:25.514Z,101186.67
2018-07-23T09:06:55.431Z,101191.72
2018-07-23T09:09:26.021Z,101194.08
2018-07-23T09:11:55.941Z,101194.09
2018-07-23T09:14:25.526Z,101196.99
2018-07-23T09:16:54.802Z,101194.76
2018-07-23T09:19:24.779Z,101198.78
2018-07-23T09:21:54.358Z,101204.08
2018-07-23T09:24:23.865Z,101198.95
2018-07-23T09:26:53.794Z,101206.09
2018-07-23T09:29:23.109Z,101209.64
2018-07-23T09:31:52.427Z,101208.22
2018-07-23T09:34:22.472Z,101215.21
2018-07-23T09:36:51.820Z,101202.15
2018-07-23T09:39:21.378Z,101208.77
2018-07-23T09:41:51.239Z,101211.31
2018-07-23T09:44:20.707Z,101202.73
2018-07-23T09:46:50.171Z,101206.19
2018-07-23T09:49:19.826Z,101205.91
2018-07-23T09:51:49.438Z,101211.16
2018-07-23T09:54:19.046Z,101211.03
2018-07-23T09:56:48.923Z,101222.04
2018-07-23T09:59:18.751Z,101209.69
2018-07-23T10:01:48.065Z,101212.53
2018-07-23T10:04:17.625Z,101217.34
2018-07-23T10:06:47.275Z,101208.62
2018-07-23T10:09:16.512Z,101207.84
2018-07-23T10:11:46.226Z,101214.55
2018-07-23T10:14:15.966Z,101221.23
2018-07-23T10:16:45.626Z,101216.37
2018-07-23T10:19:15.147Z,101215.72
2018-07-23T10:21:44.831Z,101229.41
2018-07-23T10:24:14.259Z,101216.80
2018-07-23T10:26:44.389Z,101218.10
2018-07-23T10:29:14.258Z,101060.62
2018-07-23T10:31:43.682Z,101225.49
2018-07-23T10:34:13.006Z,101228.70
2018-07-23T10:36:42.986Z,101223.87
2018-07-23T10:39:12.287Z,101234.35
2018-07-23T10:41:42.085Z,101231.66
2018-07-23T10:44:11.583Z,101228.39
2018-07-23T10:46:40.890Z,101219.31
2018-07-23T10:49:10.519Z,101223.27
2018-07-23T10:51:40.285Z,101218.81
2018-07-23T10:54:10.055Z,101223.16
2018-07-23T10:56:39.715Z,101213.39
2018-07-23T10:59:09.129Z,100955.80
2018-07-23T11:01:38.756Z,101227.90
2018-07-23T11:04:08.513Z,101215.98
2018-07-23T11:06:38.034Z,101227.98
2018-07-23T11:09:08.796Z,101224.26
2018-07-23T11:11:38.589Z,101224.52
2018-07-23T11:14:08.495Z,101220.53
2018-07-23T11:16:38.224Z,101228.09
2018-07-23T11:19:07.645Z,101224.53
2018-07-23T11:21:37.455Z,101227.06
2018-07-23T11:24:07.189Z,101229.77
2018-07-23T11:26:36.649Z,101216.78
2018-07-23T11:29:06.325Z,101239.24
2018-07-23T11:31:36.013Z,101234.20
2018-07-23T11:34:06.781Z,101238.38
2018-07-23T11:36:36.210Z,101233.11
2018-07-23T11:39:08.347Z,101242.27
2018-07-23T11:41:38.108Z,101244.39
2018-07-23T11:44:07.617Z,101248.27
2018-07-23T11:46:37.037Z,101247.45
2018-07-23T11:49:06.892Z,101243.17
2018-07-23T11:51:36.443Z,101245.84
2018-07-23T11:54:06.187Z,101247.44
2018-07-23T11:56:35.843Z,101237.34
2018-07-23T11:59:06.542Z,101208.30
2018-07-23T12:01:36.157Z,101239.28
2018-07-23T12:04:10.405Z,101240.14
2018-07-23T12:06:35.204Z,101233.75
2018-07-23T12:09:07.342Z,101233.06
2018-07-23T12:11:37.216Z,101236.43
2018-07-23T12:14:06.955Z,101235.84
2018-07-23T12:16:37.199Z,101237.31
2018-07-23T12:19:07.431Z,101236.70
2018-07-23T12:21:36.895Z,101237.73
2018-07-23T12:24:06.501Z,101241.89
2018-07-23T12:26:36.013Z,101241.66
2018-07-23T12:29:06.676Z,101237.13
2018-07-23T12:31:36.148Z,101242.59
2018-07-23T12:34:06.469Z,101249.17
2018-07-23T12:36:36.396Z,101247.22
2018-07-23T12:39:09.100Z,101249.07
2018-07-23T12:41:38.857Z,101246.72
2018-07-23T12:44:08.433Z,101256.20
2018-07-23T12:46:38.241Z,101249.52
2018-07-23T12:49:08.078Z,101251.85
2018-07-23T12:51:37.797Z,101257.81
2018-07-23T12:54:07.641Z,101249.61
2018-07-23T12:56:37.372Z,101242.53
2018-07-23T12:59:06.779Z,101246.56
2018-07-23T13:01:36.727Z,101247.05
2018-07-23T13:04:05.998Z,101243.63
2018-07-23T13:06:35.461Z,101242.16
2018-07-23T13:09:07.360Z,101245.77
2018-07-23T13:11:36.792Z,101243.20
2018-07-23T13:14:06.490Z,101243.90
2018-07-23T13:16:36.078Z,101238.02
2018-07-23T13:19:05.533Z,101233.92
2018-07-23T13:21:35.327Z,101239.77
2018-07-23T13:24:05.007Z,101238.45
2018-07-23T13:26:34.541Z,101242.84
2018-07-23T13:29:04.505Z,101240.25
2018-07-23T13:31:34.155Z,101243.12
2018-07-23T13:34:04.231Z,101233.94
2018-07-23T13:36:33.692Z,101240.16
2018-07-23T13:39:03.344Z,101237.72
2018-07-23T13:41:33.042Z,101240.30
2018-07-23T13:44:02.404Z,101234.44
2018-07-23T13:46:31.970Z,101230.37
2018-07-23T13:49:01.759Z,101237.43
2018-07-23T13:51:31.073Z,101247.41
2018-07-23T13:54:00.580Z,101244.55
2018-07-23T13:56:30.144Z,101244.66
2018-07-23T13:58:59.356Z,101242.23
2018-07-23T14:01:29.096Z,101244.50
2018-07-23T14:03:58.678Z,101246.51
2018-07-23T14:06:28.700Z,101253.39
2018-07-23T14:08:58.564Z,101252.66
2018-07-23T14:11:28.471Z,101246.10
2018-07-23T14:13:57.826Z,101250.66
2018-07-23T14:16:28.002Z,101258.64
2018-07-23T14:18:57.776Z,101256.56
2018-07-23T14:21:27.621Z,101255.83
2018-07-23T14:23:57.388Z,101256.20
2018-07-23T14:27:31.396Z,101256.57
2018-07-23T14:30:01.448Z,101256.05
2018-07-23T14:32:31.283Z,101260.12
2018-07-23T14:35:00.777Z,101264.05
2018-07-23T14:37:30.236Z,101266.14
2018-07-23T14:39:59.748Z,101267.33
2018-07-23T14:42:29.193Z,101266.28
2018-07-23T14:44:58.831Z,101267.64
2018-07-23T14:47:29.579Z,101265.29
2018-07-23T14:49:59.063Z,101263.53
2018-07-23T14:52:28.612Z,101259.05
2018-07-23T14:54:58.349Z,101271.09
2018-07-23T14:57:27.933Z,101264.95
2018-07-23T14:59:57.532Z,101268.02
2018-07-23T15:02:28.114Z,101263.23
2018-07-23T15:04:57.777Z,101257.64
2018-07-23T15:07:27.642Z,101263.83
2018-07-23T15:09:57.528Z,101208.45
2018-07-23T15:12:27.583Z,101256.20
2018-07-23T15:14:57.024Z,101265.52
2018-07-23T15:17:26.916Z,101265.67
2018-07-23T15:19:56.574Z,101268.52
2018-07-23T15:22:27.341Z,101263.45
2018-07-23T15:24:57.489Z,101272.44
2018-07-23T15:27:26.949Z,101268.09
2018-07-23T15:29:56.823Z,101268.20
2018-07-23T15:32:26.582Z,101269.59
2018-07-23T15:34:56.053Z,101263.14
2018-07-23T15:37:25.859Z,101256.67
2018-07-23T15:39:55.697Z,101269.92
2018-07-23T15:42:25.245Z,101272.28
2018-07-23T15:44:54.968Z,101270.33
2018-07-23T15:47:24.563Z,101276.84
2018-07-23T15:49:53.876Z,101269.59
2018-07-23T15:52:23.687Z,101273.17
2018-07-23T15:54:53.457Z,101264.15
2018-07-23T15:57:22.952Z,101266.84
2018-07-23T15:59:52.621Z,101262.36
2018-07-23T16:02:22.496Z,101268.41
2018-07-23T16:04:51.971Z,101269.87
2018-07-23T16:07:21.785Z,101267.46
2018-07-23T16:09:51.317Z,101276.02
2018-07-23T16:12:20.764Z,101272.03
2018-07-23T16:14:50.518Z,101273.28
2018-07-23T16:17:20.282Z,101278.85
2018-07-23T16:19:49.573Z,101281.77
2018-07-23T16:22:19.349Z,101283.37
2018-07-23T16:24:49.273Z,101274.28
2018-07-23T16:27:19.027Z,101277.36
2018-07-23T16:29:48.864Z,101280.75
2018-07-23T16:32:18.484Z,101285.44
2018-07-23T16:34:47.901Z,101283.25
2018-07-23T16:37:17.724Z,101283.39
2018-07-23T16:39:47.405Z,101280.58
2018-07-23T16:42:16.550Z,101287.42
2018-07-23T16:44:46.657Z,101279.86
2018-07-23T16:47:16.263Z,101286.87
2018-07-23T16:49:45.670Z,101286.31
2018-07-23T16:52:15.229Z,101291.37
2018-07-23T16:54:44.886Z,101283.88
2018-07-23T16:57:14.448Z,101287.54
2018-07-23T16:59:44.203Z,101287.44
2018-07-23T17:02:13.848Z,101295.91
2018-07-23T17:04:43.176Z,101298.28
2018-07-23T17:07:19.459Z,101291.57
2018-07-23T17:09:48.963Z,101298.38
2018-07-23T17:12:18.368Z,101300.83
2018-07-23T17:14:47.909Z,101295.31
2018-07-23T17:17:17.361Z,101294.58
2018-07-23T17:19:46.953Z,101299.48
2018-07-23T17:22:16.689Z,101296.39
2018-07-23T17:24:46.173Z,101298.23
2018-07-23T17:27:15.685Z,101301.92
2018-07-23T17:29:45.277Z,101303.86
2018-07-23T17:32:14.451Z,101300.03
2018-07-23T17:34:43.947Z,101300.39
2018-07-23T17:37:13.327Z,101300.92
2018-07-23T17:39:42.804Z,101297.73
2018-07-23T17:42:12.383Z,101300.72
2018-07-23T17:44:41.781Z,101291.04
2018-07-23T17:47:11.158Z,101298.29
2018-07-23T17:49:41.078Z,101299.14
2018-07-23T17:52:10.633Z,101302.30
2018-07-23T17:54:40.136Z,101290.09
2018-07-23T17:57:09.925Z,101296.00
2018-07-23T17:59:39.520Z,101296.21
2018-07-23T18:02:08.942Z,101296.42
2018-07-23T18:04:38.756Z,101298.77
2018-07-23T18:07:08.498Z,101299.36
2018-07-23T18:09:37.757Z,101301.23
2018-07-23T18:12:07.566Z,101298.42
2018-07-23T18:14:37.693Z,101303.38
2018-07-23T18:17:07.180Z,101311.55
2018-07-23T18:19:36.589Z,101304.46
2018-07-23T18:22:06.518Z,101306.47
2018-07-23T18:24:36.197Z,101317.20
2018-07-23T18:27:05.482Z,101320.92
2018-07-23T18:29:35.538Z,101307.94
2018-07-23T18:32:04.998Z,101304.97
2018-07-23T18:34:34.795Z,101308.34
2018-07-23T18:37:05.422Z,101308.34
2018-07-23T18:39:34.814Z,101309.39
2018-07-23T18:42:04.382Z,101305.37
2018-07-23T18:44:34.055Z,101312.84
2018-07-23T18:47:03.523Z,101313.19
2018-07-23T18:49:44.881Z,101317.97
2018-07-23T18:52:15.506Z,101318.00
2018-07-23T18:54:46.179Z,101321.34
2018-07-23T18:57:15.594Z,101320.41
2018-07-23T18:59:45.039Z,101316.71
2018-07-23T19:02:16.222Z,101323.75
2018-07-23T19:04:45.871Z,101323.52
2018-07-23T19:07:16.162Z,101323.60
2018-07-23T19:09:45.849Z,101323.30
2018-07-23T19:12:15.311Z,101324.52
2018-07-23T19:14:44.902Z,101324.52
2018-07-23T19:17:15.406Z,101331.86
2018-07-23T19:19:44.949Z,101333.46
2018-07-23T19:22:14.502Z,101335.98
2018-07-23T19:24:44.375Z,101336.67
2018-07-23T19:27:14.092Z,101336.56
2018-07-23T19:29:43.862Z,101340.45
2018-07-23T19:32:13.698Z,101342.20
2018-07-23T19:34:43.460Z,101340.77
2018-07-23T19:37:12.852Z,101349.88
2018-07-23T19:39:42.502Z,101341.14
2018-07-23T19:42:12.086Z,101346.45
2018-07-23T19:44:41.622Z,101341.94
2018-07-23T19:47:11.325Z,101350.88
2018-07-23T19:49:41.305Z,101343.47
2018-07-23T19:52:10.883Z,101347.45
2018-07-23T19:54:41.053Z,101356.49
2018-07-23T19:57:10.484Z,101349.48
2018-07-23T19:59:39.909Z,101346.70
2018-07-23T20:02:09.990Z,101346.59
2018-07-23T20:04:39.556Z,101350.08
2018-07-23T20:07:09.321Z,101348.91
2018-07-23T20:09:39.096Z,101348.20
2018-07-23T20:12:08.531Z,101352.75
2018-07-23T20:14:37.935Z,101349.55
2018-07-23T20:17:07.897Z,101352.11
2018-07-23T20:19:37.304Z,101354.48
2018-07-23T20:22:06.589Z,101355.16
2018-07-23T20:24:36.881Z,101355.79
2018-07-23T20:27:06.397Z,101348.22
2018-07-23T20:29:35.941Z,101346.92
2018-07-23T20:32:06.494Z,101350.44
2018-07-23T20:34:35.821Z,101352.11
2018-07-23T20:37:05.948Z,101354.32
2018-07-23T20:39:35.616Z,101349.95
2018-07-23T20:42:05.038Z,101347.00
2018-07-23T20:44:34.648Z,101342.11
2018-07-23T20:47:04.650Z,101342.64
2018-07-23T20:49:34.188Z,101345.03
2018-07-23T20:52:04.180Z,101341.59
2018-07-23T20:54:33.792Z,101344.23
2018-07-23T20:57:03.731Z,101345.73
2018-07-23T20:59:33.234Z,101340.14
2018-07-23T21:02:04.009Z,101346.86
2018-07-23T21:04:33.613Z,101341.06
2018-07-23T21:07:03.106Z,101350.84
2018-07-23T21:09:33.026Z,101348.70
2018-07-23T21:12:02.868Z,101354.33
2018-07-23T21:14:32.283Z,101356.48
2018-07-23T21:17:02.160Z,101352.28
2018-07-23T21:19:31.712Z,101358.16
2018-07-23T21:22:01.343Z,101353.73
2018-07-23T21:24:31.199Z,101356.05
2018-07-23T21:27:00.560Z,101365.83
2018-07-23T21:29:30.192Z,101353.80
2018-07-23T21:32:00.200Z,101352.49
2018-07-23T21:34:29.784Z,101353.83
2018-07-23T21:36:59.137Z,101360.94
2018-07-23T21:39:29.308Z,101361.04
2018-07-23T21:41:58.908Z,101361.04
2018-07-23T21:44:28.676Z,101359.00
2018-07-23T21:46:58.228Z,101360.86
2018-07-23T21:49:27.641Z,101357.27
2018-07-23T21:51:57.435Z,101360.33
2018-07-23T21:54:26.993Z,101352.56
2018-07-23T21:56:56.605Z,101351.78
2018-07-23T21:59:25.891Z,101192.13
2018-07-23T22:01:55.459Z,101352.31
2018-07-23T22:04:25.286Z,101356.84
2018-07-23T22:06:54.682Z,101353.75
2018-07-23T22:09:24.400Z,101357.27
2018-07-23T22:11:54.349Z,101357.66
2018-07-23T22:14:23.866Z,101360.66
2018-07-23T22:16:53.654Z,101357.66
2018-07-23T22:19:23.025Z,101352.31
2018-07-23T22:21:52.421Z,101352.41
2018-07-23T22:24:22.849Z,101351.33
2018-07-23T22:26:52.371Z,101354.98
2018-07-23T22:29:22.184Z,101352.94
2018-07-23T22:31:51.735Z,101352.27
2018-07-23T22:34:21.085Z,101358.89
2018-07-23T22:36:50.690Z,101354.98
2018-07-23T22:39:20.331Z,101360.44
2018-07-23T22:41:49.787Z,101361.48
2018-07-23T22:44:19.666Z,101364.05
2018-07-23T22:46:49.236Z,101362.09
2018-07-23T22:49:18.611Z,101360.23
2018-07-23T22:51:48.192Z,101358.47
2018-07-23T22:54:17.965Z,101358.70
2018-07-23T22:56:47.247Z,101356.95
2018-07-23T22:59:16.993Z,101356.95
2018-07-23T23:01:46.620Z,101354.34
2018-07-23T23:04:16.880Z,101353.08
2018-07-23T23:06:46.512Z,101359.86
2018-07-23T23:09:16.000Z,101358.52
2018-07-23T23:11:45.635Z,101357.09
2018-07-23T23:14:15.203Z,101356.66
2018-07-23T23:16:44.883Z,101357.19
2018-07-23T23:19:14.244Z,101349.36
2018-07-23T23:21:43.990Z,101360.48
2018-07-23T23:24:13.403Z,101357.00
2018-07-23T23:26:43.019Z,101354.71
2018-07-23T23:29:12.951Z,101355.76
2018-07-23T23:31:42.660Z,101359.41
2018-07-23T23:34:12.060Z,101198.41
2018-07-23T23:36:41.763Z,101351.84
2018-07-23T23:39:12.365Z,101349.24
2018-07-23T23:41:42.314Z,101350.09
2018-07-23T23:44:11.752Z,101351.95
2018-07-23T23:46:41.767Z,101346.41
2018-07-23T23:49:11.151Z,101351.86
2018-07-23T23:51:40.764Z,101352.90
2018-07-23T23:54:10.898Z,101348.37
2018-07-23T23:56:40.496Z,101344.45
2018-07-23T23:59:09.781Z,101345.41
